Samanzing Airstrip

METAR AYNZ TAF N/A
28 °C
°C
-
°C
1h
Età
03:54:26
LT
02:54
UTC
0 ft

1.000

2.000

3.000

4.000

5.000

SCT 3.000
SCT 5.000
VFR
<?= Yii::t('app', 'Wind direction') ?> <?= Yii::t('app', 'of'); ?>
280°
18:38
Tramonto
70%
Umidità
Taglio del vento
Chiuso/Neve
Raggio visivo RWY
Condizione della RWY
Visibilità verticale
Visibilità minima
CAVOK
Tendenza
Correzione
Rapporto speciale
1006 hPa
QNH
METAR AYNZ 040100Z 28004KT 9999 SCT030 SCT050 28/22 Q1006
Nubi sparse
0 kt
0 kt
10 km+
Vista
No
Base nuvolosa
4 kt
Vento
metar-taf.com/AYSZ

Metar-Taf.com

Decodificatore visivo

Noi e le terze parti seguiamo il tuo comportamento su internet con i cookie. Se continui, riteniamo che tu sia d'accordo con la nostra Politica sui cookie.